createdAt,value
2023-03-06T21:06:02.871Z,0.04
2023-03-06T21:07:02.813Z,-0.01
2023-03-06T21:08:02.742Z,-0.07
2023-03-06T21:09:02.711Z,-0.01
2023-03-06T21:10:02.671Z,-0.04
2023-03-06T21:11:02.599Z,0.00
2023-03-06T21:12:02.510Z,0.00
2023-03-06T21:13:02.465Z,-0.03
2023-03-06T21:14:02.391Z,-0.01
2023-03-06T21:15:02.395Z,0.07
2023-03-06T21:16:02.304Z,0.02
2023-03-06T21:17:02.218Z,0.00
2023-03-06T21:18:02.138Z,0.00
2023-03-06T21:19:02.068Z,0.05
2023-03-06T21:20:02.028Z,-0.01
2023-03-06T21:21:01.944Z,-0.04
2023-03-06T21:22:01.873Z,-0.03
2023-03-06T21:23:01.818Z,-0.01
2023-03-06T21:24:01.768Z,0.00
2023-03-06T21:25:01.681Z,-0.01
2023-03-06T21:26:01.598Z,0.00
2023-03-06T21:27:01.564Z,0.00
2023-03-06T21:28:01.462Z,-0.01
2023-03-06T21:29:01.393Z,0.02
2023-03-06T21:30:01.333Z,-0.03
2023-03-06T21:31:01.287Z,0.00
2023-03-06T21:32:01.269Z,0.05
2023-03-06T21:33:01.123Z,0.04
2023-03-06T21:34:03.091Z,-0.01
2023-03-06T21:35:01.024Z,-0.07
2023-03-06T21:36:00.982Z,-0.03
2023-03-06T21:37:00.892Z,-0.01
2023-03-06T21:38:00.811Z,-0.04
2023-03-06T21:39:00.702Z,0.00
2023-03-06T21:40:00.642Z,-0.01
2023-03-06T21:41:00.556Z,0.02
2023-03-06T21:42:00.498Z,-0.04
2023-03-06T21:43:00.409Z,0.02
2023-03-06T21:44:00.355Z,-0.04
2023-03-06T21:45:00.340Z,-0.01
2023-03-06T21:46:00.236Z,-0.03
2023-03-06T21:47:00.144Z,-0.03
2023-03-06T21:48:00.082Z,-0.03
2023-03-06T21:49:00.005Z,0.00
2023-03-06T21:49:59.968Z,-0.09
2023-03-06T21:50:59.881Z,-0.04
2023-03-06T21:51:59.808Z,-0.03
2023-03-06T21:52:59.753Z,-0.07
2023-03-06T21:53:59.680Z,0.02
2023-03-06T21:54:59.631Z,0.00
2023-03-06T21:55:59.562Z,-0.06
2023-03-06T21:56:59.454Z,0.00
2023-03-06T21:57:59.423Z,-0.04
2023-03-06T21:58:59.324Z,-0.01
2023-03-06T21:59:59.309Z,-0.04
2023-03-06T22:00:59.216Z,-0.06
2023-03-06T22:01:59.115Z,-0.07
2023-03-06T22:02:59.034Z,-0.09
2023-03-06T22:03:59.017Z,-0.06
2023-03-06T22:04:58.906Z,-0.07
2023-03-06T22:05:58.852Z,-0.03
2023-03-06T22:06:58.743Z,-0.06
2023-03-06T22:07:58.673Z,-0.06
2023-03-06T22:08:58.599Z,-0.03
2023-03-06T22:09:58.562Z,-0.01
2023-03-06T22:10:58.455Z,-0.06
2023-03-06T22:11:58.397Z,-0.06
2023-03-06T22:12:58.328Z,-0.04
2023-03-06T22:13:58.281Z,-0.04
2023-03-06T22:14:58.189Z,-0.11
2023-03-06T22:15:58.123Z,-0.04
2023-03-06T22:16:58.042Z,-0.04
2023-03-06T22:17:57.970Z,-0.06
2023-03-06T22:18:57.892Z,-0.01
2023-03-06T22:19:57.827Z,0.00
2023-03-06T22:20:57.782Z,-0.04
2023-03-06T22:21:57.691Z,-0.03
2023-03-06T22:22:57.623Z,-0.10
2023-03-06T22:23:57.612Z,-0.07
2023-03-06T22:24:57.489Z,-0.04
2023-03-06T22:25:57.436Z,-0.04
2023-03-06T22:26:57.350Z,-0.09
2023-03-06T22:27:57.256Z,-0.06
2023-03-06T22:28:57.189Z,-0.04
2023-03-06T22:29:57.109Z,-0.06
2023-03-06T22:30:57.016Z,-0.07
2023-03-06T22:31:56.997Z,-0.09
2023-03-06T22:32:56.930Z,-0.04
2023-03-06T22:33:56.808Z,-0.09
2023-03-06T22:34:56.724Z,-0.11
2023-03-06T22:35:56.690Z,-0.07
2023-03-06T22:36:56.573Z,-0.11
2023-03-06T22:37:56.509Z,-0.09
2023-03-06T22:38:56.443Z,-0.03
2023-03-06T22:39:56.385Z,-0.09
2023-03-06T22:40:56.307Z,-0.10
2023-03-06T22:41:56.244Z,-0.06
2023-03-06T22:42:56.171Z,-0.06
2023-03-06T22:43:56.105Z,-0.10
2023-03-06T22:44:56.088Z,-0.07
2023-03-06T22:45:55.988Z,-0.09
2023-03-06T22:46:55.919Z,-0.09
2023-03-06T22:48:05.625Z,-0.14
2023-03-06T22:48:56.762Z,-0.09
2023-03-06T22:49:55.706Z,-0.11
2023-03-06T22:50:55.618Z,-0.10
2023-03-06T22:51:55.554Z,-0.10
2023-03-06T22:52:55.470Z,-0.11
2023-03-06T22:53:55.413Z,-0.14
2023-03-06T22:54:55.335Z,-0.13
2023-03-06T22:55:55.228Z,-0.10
2023-03-06T22:56:55.143Z,-0.10
2023-03-06T22:57:55.137Z,-0.07
2023-03-06T22:58:55.033Z,-0.09
2023-03-06T22:59:54.948Z,-0.16
2023-03-06T23:00:54.848Z,-0.16
2023-03-06T23:01:54.777Z,-0.11
2023-03-06T23:02:54.711Z,-0.09
2023-03-06T23:03:54.638Z,-0.11
2023-03-06T23:04:54.568Z,-0.07
2023-03-06T23:05:54.529Z,-0.09
2023-03-06T23:06:54.407Z,-0.10
2023-03-06T23:07:54.328Z,-0.09
2023-03-06T23:08:54.261Z,-0.07
2023-03-06T23:09:54.185Z,-0.14
2023-03-06T23:10:54.109Z,-0.07
2023-03-06T23:11:54.030Z,-0.11
2023-03-06T23:12:53.958Z,-0.11
2023-03-06T23:13:53.872Z,-0.09
2023-03-06T23:14:53.844Z,-0.10
2023-03-06T23:15:53.768Z,-0.14
2023-03-06T23:16:53.644Z,-0.13
2023-03-06T23:17:53.576Z,-0.16
2023-03-06T23:18:53.516Z,-0.07
2023-03-06T23:19:53.460Z,-0.14
2023-03-06T23:20:53.358Z,-0.10
2023-03-06T23:21:53.280Z,-0.13
2023-03-06T23:22:53.211Z,-0.16
2023-03-06T23:23:53.135Z,-0.16
2023-03-06T23:24:53.047Z,-0.20
2023-03-06T23:25:52.979Z,-0.11
2023-03-06T23:26:52.884Z,-0.14
2023-03-06T23:27:52.811Z,-0.14
2023-03-06T23:28:52.730Z,-0.20
2023-03-06T23:29:52.663Z,-0.14
2023-03-06T23:30:52.597Z,-0.16
2023-03-06T23:31:52.507Z,-0.17
2023-03-06T23:32:52.429Z,-0.16
2023-03-06T23:33:52.410Z,-0.17
2023-03-06T23:34:52.288Z,-0.17
2023-03-06T23:35:52.256Z,-0.11
